createdAt,value
2023-02-17T00:01:23.913Z,5.20
2023-02-17T00:03:54.733Z,5.20
2023-02-17T00:06:24.912Z,5.50
2023-02-17T00:08:52.163Z,5.70
2023-02-17T00:11:20.189Z,5.50
2023-02-17T00:13:47.821Z,5.40
2023-02-17T00:16:20.650Z,5.20
2023-02-17T00:18:52.327Z,5.30
2023-02-17T00:21:23.633Z,5.20
2023-02-17T00:23:51.059Z,4.90
2023-02-17T00:26:19.406Z,5.10
2023-02-17T00:28:49.612Z,5.00
2023-02-17T00:31:22.341Z,4.80
2023-02-17T00:33:49.846Z,5.10
2023-02-17T00:36:20.229Z,5.20
2023-02-17T00:38:48.525Z,5.40
2023-02-17T00:41:19.910Z,5.20
2023-02-17T00:43:48.378Z,5.10
2023-02-17T00:46:17.613Z,5.20
2023-02-17T00:48:46.048Z,5.20
2023-02-17T00:51:16.434Z,4.90
2023-02-17T00:53:43.692Z,5.20
2023-02-17T00:56:12.040Z,5.00
2023-02-17T00:58:41.446Z,4.50
2023-02-17T01:01:10.198Z,5.20
2023-02-17T01:03:45.025Z,5.20
2023-02-17T01:06:27.170Z,5.40
2023-02-17T01:08:54.935Z,5.30
2023-02-17T01:11:25.759Z,5.40
2023-02-17T01:13:54.131Z,4.60
2023-02-17T01:16:28.229Z,5.00
2023-02-17T01:18:55.337Z,5.50
2023-02-17T01:21:25.873Z,5.20
2023-02-17T01:23:54.921Z,5.20
2023-02-17T01:26:24.731Z,5.30
2023-02-17T01:28:52.962Z,5.30
2023-02-17T01:31:22.629Z,5.30
2023-02-17T01:33:50.226Z,5.30
2023-02-17T01:36:19.266Z,5.40
2023-02-17T01:38:47.080Z,5.20
2023-02-17T01:41:16.781Z,5.10
2023-02-17T01:44:04.179Z,5.30
2023-02-17T01:46:36.159Z,6.10
2023-02-17T01:49:19.798Z,5.40
2023-02-17T01:51:51.744Z,5.40
2023-02-17T01:54:24.474Z,5.30
2023-02-17T01:56:52.456Z,4.70
2023-02-17T01:59:22.885Z,5.50
2023-02-17T02:01:54.933Z,5.20
2023-02-17T02:04:25.836Z,5.50
2023-02-17T02:06:53.287Z,5.30
2023-02-17T02:09:25.719Z,5.10
2023-02-17T02:14:21.785Z,5.20
2023-02-17T02:16:58.544Z,5.50
2023-02-17T02:19:55.048Z,5.40
2023-02-17T02:22:39.976Z,4.90
2023-02-17T02:28:17.926Z,5.20
2023-02-17T02:31:21.775Z,5.30
2023-02-17T02:34:24.750Z,5.50
2023-02-17T02:37:13.651Z,5.40
2023-02-17T02:39:46.653Z,5.20
2023-02-17T02:42:18.398Z,5.10
2023-02-17T02:44:45.980Z,5.50
2023-02-17T02:47:42.305Z,5.30
2023-02-17T02:50:12.902Z,5.10
2023-02-17T02:52:55.997Z,5.00
2023-02-17T02:55:53.165Z,5.30
2023-02-17T02:58:35.936Z,5.30
2023-02-17T03:01:16.073Z,5.30
2023-02-17T03:04:02.890Z,5.60
2023-02-17T03:07:05.222Z,5.30
2023-02-17T03:09:33.211Z,5.20
2023-02-17T03:12:00.857Z,5.00
2023-02-17T03:14:37.620Z,5.20
2023-02-17T03:22:12.422Z,5.20
2023-02-17T03:24:39.873Z,5.40
2023-02-17T03:27:09.098Z,5.50
2023-02-17T03:32:06.047Z,5.10
2023-02-17T03:34:33.135Z,5.20
2023-02-17T03:37:00.408Z,5.50
2023-02-17T03:41:55.274Z,5.40
2023-02-17T03:46:50.046Z,5.60
2023-02-17T03:49:19.606Z,5.10
2023-02-17T03:51:47.221Z,5.40
2023-02-17T03:54:14.294Z,5.40
2023-02-17T03:59:09.532Z,5.40
2023-02-17T04:01:37.050Z,5.60
2023-02-17T04:04:04.230Z,5.40
2023-02-17T04:06:33.735Z,5.30
2023-02-17T04:09:00.789Z,5.30
2023-02-17T04:11:28.473Z,5.30
2023-02-17T04:13:58.240Z,5.20
2023-02-17T04:16:25.666Z,5.80
2023-02-17T04:18:52.733Z,5.10
2023-02-17T04:21:20.171Z,5.60
2023-02-17T04:23:47.227Z,4.90
2023-02-17T04:26:14.638Z,6.10
2023-02-17T04:28:42.526Z,5.20
2023-02-17T04:33:39.455Z,5.90
2023-02-17T04:36:07.131Z,5.00
2023-02-17T04:38:34.841Z,5.40
2023-02-17T04:41:02.321Z,5.40
2023-02-17T04:43:29.804Z,5.40
2023-02-17T04:45:57.667Z,5.40
2023-02-17T04:48:29.037Z,5.40
2023-02-17T04:50:56.587Z,5.40
2023-02-17T04:55:52.968Z,5.50
2023-02-17T04:58:20.997Z,5.30
2023-02-17T05:00:50.064Z,5.10
2023-02-17T05:03:20.504Z,5.20
2023-02-17T05:08:15.859Z,5.30
2023-02-17T05:10:43.312Z,5.20
2023-02-17T05:13:10.598Z,5.50
2023-02-17T05:25:29.082Z,5.30
2023-02-17T05:27:56.180Z,5.60
2023-02-17T05:30:23.771Z,5.40
2023-02-17T05:32:50.829Z,5.40
2023-02-17T05:35:18.589Z,5.30
2023-02-17T05:37:45.749Z,5.30
2023-02-17T05:40:13.461Z,5.20
2023-02-17T05:42:40.711Z,5.20
2023-02-17T05:45:08.583Z,5.30
2023-02-17T05:50:04.114Z,5.30
2023-02-17T05:52:31.976Z,5.30
2023-02-17T05:54:59.433Z,4.90
2023-02-17T05:57:27.532Z,5.40
2023-02-17T05:59:54.855Z,5.20
2023-02-17T06:02:21.880Z,5.30
2023-02-17T06:04:49.330Z,5.20
2023-02-17T06:07:16.351Z,5.20
2023-02-17T06:09:44.859Z,5.30
2023-02-17T06:12:13.060Z,5.30
2023-02-17T06:14:40.540Z,5.30
2023-02-17T06:17:07.828Z,5.10
2023-02-17T06:19:35.233Z,5.30
2023-02-17T06:22:02.360Z,5.50
2023-02-17T06:24:29.945Z,5.20
2023-02-17T06:26:57.068Z,5.40
2023-02-17T06:29:24.509Z,5.60
2023-02-17T06:31:51.621Z,5.30
2023-02-17T06:34:19.113Z,5.00
2023-02-17T06:39:14.062Z,5.50
2023-02-17T06:41:42.789Z,5.40
2023-02-17T06:44:10.141Z,5.70
2023-02-17T06:46:37.159Z,5.50
2023-02-17T06:49:04.839Z,5.40
2023-02-17T06:53:59.608Z,5.10
2023-02-17T06:56:26.782Z,5.50
2023-02-17T07:01:26.353Z,5.40
2023-02-17T07:03:54.483Z,5.60
2023-02-17T07:06:23.524Z,5.50
2023-02-17T07:08:51.464Z,5.50
2023-02-17T07:11:18.953Z,5.60
2023-02-17T07:13:48.092Z,5.70
2023-02-17T07:16:15.850Z,5.90
2023-02-17T07:18:43.240Z,6.10
2023-02-17T07:21:10.626Z,5.80
2023-02-17T07:23:39.512Z,5.50
2023-02-17T07:26:11.998Z,5.80
2023-02-17T07:28:40.291Z,5.70
2023-02-17T07:31:13.059Z,5.50
2023-02-17T07:33:42.022Z,5.80
2023-02-17T07:36:11.399Z,5.50
2023-02-17T07:38:39.677Z,6.00
2023-02-17T07:41:18.755Z,5.50
2023-02-17T07:43:48.161Z,6.10
2023-02-17T07:46:17.657Z,5.90
2023-02-17T07:48:45.050Z,5.70
2023-02-17T07:51:17.621Z,6.90
2023-02-17T07:53:45.046Z,5.80
2023-02-17T07:56:14.726Z,6.30
2023-02-17T07:58:43.399Z,6.20
2023-02-17T08:01:17.204Z,5.60
2023-02-17T08:03:45.446Z,6.10
2023-02-17T08:06:18.257Z,5.70
2023-02-17T08:09:06.007Z,5.90
2023-02-17T08:11:52.105Z,5.80
2023-02-17T08:14:21.808Z,6.00
2023-02-17T08:16:49.217Z,6.30
2023-02-17T08:19:16.359Z,6.30
2023-02-17T08:21:43.839Z,5.90
2023-02-17T08:24:12.265Z,6.30
2023-02-17T08:26:40.108Z,6.30
2023-02-17T08:29:07.665Z,6.30
2023-02-17T08:31:36.324Z,6.50
2023-02-17T08:34:05.979Z,6.30
2023-02-17T08:36:33.948Z,6.50
2023-02-17T08:39:01.500Z,6.10
2023-02-17T08:41:31.995Z,6.50
2023-02-17T08:44:04.270Z,6.40
2023-02-17T08:46:31.839Z,6.20
2023-02-17T08:48:58.954Z,6.30
2023-02-17T08:51:26.396Z,6.50
2023-02-17T08:53:56.879Z,5.70
2023-02-17T08:56:26.202Z,6.50
2023-02-17T08:58:53.810Z,5.90
2023-02-17T09:01:21.802Z,6.40
2023-02-17T09:03:50.632Z,6.20
2023-02-17T09:06:18.924Z,6.80
2023-02-17T09:08:46.336Z,6.40
2023-02-17T09:11:17.229Z,6.40
2023-02-17T09:13:44.918Z,6.00
2023-02-17T09:16:12.530Z,6.70
2023-02-17T09:18:40.002Z,6.70
2023-02-17T09:21:12.686Z,6.30
2023-02-17T09:23:42.651Z,6.00
2023-02-17T09:26:13.103Z,6.50
2023-02-17T09:28:41.223Z,6.80
2023-02-17T09:31:21.833Z,6.30
2023-02-17T09:33:51.185Z,6.40
2023-02-17T09:36:25.230Z,6.20
2023-02-17T09:38:54.001Z,6.60
2023-02-17T09:41:26.831Z,6.20
2023-02-17T09:43:55.179Z,6.10
2023-02-17T09:48:52.668Z,6.30
2023-02-17T09:51:27.861Z,6.10
2023-02-17T09:54:30.181Z,6.20
2023-02-17T09:57:02.325Z,6.00
2023-02-17T09:59:47.163Z,6.20
2023-02-17T10:02:32.055Z,6.20
2023-02-17T10:05:05.773Z,6.30
2023-02-17T10:07:40.051Z,6.10
2023-02-17T10:10:38.434Z,6.20
2023-02-17T10:13:11.977Z,6.40
2023-02-17T10:15:43.532Z,6.40
2023-02-17T10:18:19.043Z,5.80
2023-02-17T10:21:19.400Z,7.10
2023-02-17T10:23:47.667Z,6.50
2023-02-17T10:26:34.251Z,6.20
2023-02-17T10:29:05.548Z,5.90
2023-02-17T10:31:46.282Z,6.60
2023-02-17T10:34:56.876Z,6.40
2023-02-17T10:37:48.291Z,6.60
2023-02-17T10:40:34.303Z,5.90
2023-02-17T10:43:07.659Z,6.40
2023-02-17T10:45:43.215Z,5.90
2023-02-17T10:48:23.133Z,6.40
2023-02-17T10:50:51.275Z,6.40
2023-02-17T10:53:34.977Z,6.30
2023-02-17T10:56:32.667Z,7.40
2023-02-17T10:59:07.375Z,6.40
2023-02-17T11:01:36.301Z,6.40
2023-02-17T11:04:13.407Z,6.30
2023-02-17T11:06:50.033Z,6.50
2023-02-17T11:09:31.996Z,6.30
2023-02-17T11:12:16.413Z,6.50
2023-02-17T11:14:53.389Z,6.70
2023-02-17T11:17:31.313Z,6.60
2023-02-17T11:20:04.771Z,6.70
2023-02-17T11:22:44.522Z,6.80
2023-02-17T11:25:24.684Z,6.50
2023-02-17T11:27:53.632Z,6.50
2023-02-17T11:30:21.195Z,6.70
2023-02-17T11:32:48.791Z,6.80
2023-02-17T11:35:37.243Z,6.40
2023-02-17T11:38:14.657Z,7.00
2023-02-17T11:40:51.392Z,7.00
2023-02-17T11:43:21.471Z,6.80
2023-02-17T11:46:15.644Z,7.00
2023-02-17T11:48:48.935Z,6.90
2023-02-17T11:51:16.097Z,6.80
2023-02-17T11:54:18.121Z,6.60
2023-02-17T11:56:59.807Z,7.30
2023-02-17T12:00:00.969Z,8.40
2023-02-17T12:02:41.073Z,6.60
2023-02-17T12:05:41.677Z,6.50
2023-02-17T12:08:16.948Z,6.80
2023-02-17T12:10:54.996Z,6.90
2023-02-17T12:13:51.527Z,7.00
2023-02-17T12:17:01.808Z,6.70
2023-02-17T12:19:46.196Z,6.90
2023-02-17T12:22:20.877Z,6.50
2023-02-17T12:25:12.615Z,6.50
2023-02-17T12:28:13.723Z,7.10
2023-02-17T12:31:02.695Z,6.80
2023-02-17T12:33:33.030Z,6.80
2023-02-17T12:36:10.638Z,7.20
2023-02-17T12:38:49.232Z,6.70
2023-02-17T12:41:36.672Z,7.50
2023-02-17T12:44:13.084Z,7.60
2023-02-17T12:46:44.448Z,6.70
2023-02-17T12:49:30.478Z,6.70
2023-02-17T12:52:15.674Z,7.00
2023-02-17T12:54:51.423Z,7.00
2023-02-17T12:57:32.635Z,7.00
2023-02-17T13:00:01.525Z,7.00
2023-02-17T13:02:28.791Z,7.20
2023-02-17T13:05:07.428Z,6.50
2023-02-17T13:07:44.820Z,6.90
2023-02-17T13:10:27.274Z,6.80
2023-02-17T13:13:22.746Z,6.70
2023-02-17T13:16:00.545Z,6.90
2023-02-17T13:18:33.536Z,6.40
2023-02-17T13:21:26.024Z,7.10
2023-02-17T13:24:39.030Z,6.90
2023-02-17T13:27:10.526Z,7.10
2023-02-17T13:29:37.981Z,7.20
2023-02-17T13:32:10.934Z,7.00
2023-02-17T13:34:43.539Z,7.70
2023-02-17T13:37:37.595Z,6.90
2023-02-17T13:40:16.782Z,6.30
2023-02-17T13:42:51.704Z,6.60
2023-02-17T13:45:24.472Z,6.70
2023-02-17T13:47:54.227Z,6.40
2023-02-17T13:50:34.723Z,6.90
2023-02-17T13:53:06.439Z,7.30
2023-02-17T13:55:33.571Z,7.10
2023-02-17T13:58:00.991Z,6.80
2023-02-17T14:00:31.385Z,7.00
2023-02-17T14:03:20.497Z,7.10
2023-02-17T14:05:49.872Z,7.00
2023-02-17T14:08:38.750Z,6.90
2023-02-17T14:11:13.146Z,6.90
2023-02-17T14:13:45.457Z,7.00
2023-02-17T14:16:35.742Z,7.30
2023-02-17T14:19:18.150Z,8.20
2023-02-17T14:21:57.446Z,7.10
2023-02-17T14:24:37.890Z,7.30
2023-02-17T14:27:09.554Z,7.20
2023-02-17T14:29:48.408Z,7.00
2023-02-17T14:32:38.226Z,6.80
2023-02-17T14:35:18.900Z,7.70
2023-02-17T14:40:23.335Z,7.20
2023-02-17T14:42:51.240Z,7.00
2023-02-17T14:45:19.201Z,7.20
2023-02-17T14:47:48.106Z,7.10
2023-02-17T14:50:17.493Z,7.00
2023-02-17T14:52:47.558Z,5.10
2023-02-17T14:55:36.328Z,7.20
2023-02-17T14:58:03.894Z,7.20
2023-02-17T15:00:31.847Z,4.30
2023-02-17T15:07:55.631Z,7.30
2023-02-17T15:10:28.288Z,6.90
2023-02-17T15:12:56.080Z,7.40
2023-02-17T15:15:23.652Z,6.80
2023-02-17T15:17:50.957Z,7.20
2023-02-17T15:20:18.739Z,7.30
2023-02-17T15:22:52.646Z,7.50
2023-02-17T15:25:24.585Z,7.20
2023-02-17T15:27:51.940Z,7.00
2023-02-17T15:30:21.425Z,7.10
2023-02-17T15:32:48.759Z,7.40
2023-02-17T15:35:21.587Z,7.30
2023-02-17T15:37:49.034Z,7.20
2023-02-17T15:40:19.570Z,7.50
2023-02-17T15:42:56.403Z,7.50
2023-02-17T15:45:24.772Z,7.20
2023-02-17T15:47:58.175Z,7.30
2023-02-17T15:50:25.924Z,7.50
2023-02-17T15:52:53.018Z,7.20
2023-02-17T15:55:21.242Z,6.90
2023-02-17T15:57:54.560Z,7.40
2023-02-17T16:00:32.945Z,7.20
2023-02-17T16:05:33.555Z,7.90
2023-02-17T16:08:00.626Z,7.80
2023-02-17T16:10:28.819Z,7.30
2023-02-17T16:12:58.284Z,7.50
2023-02-17T16:15:27.420Z,6.90
2023-02-17T16:17:55.744Z,7.70
2023-02-17T16:20:35.688Z,7.80
2023-02-17T16:23:03.332Z,8.30
2023-02-17T16:25:30.898Z,7.30
2023-02-17T16:30:35.912Z,7.70
2023-02-17T16:33:03.488Z,8.00
2023-02-17T16:35:32.173Z,7.70
2023-02-17T16:38:07.561Z,7.70
2023-02-17T16:40:37.136Z,8.60
2023-02-17T16:43:04.728Z,7.80
2023-02-17T16:45:33.992Z,7.80
2023-02-17T16:48:01.862Z,8.00
2023-02-17T16:50:34.995Z,7.80
2023-02-17T16:53:08.146Z,8.00
2023-02-17T16:55:36.877Z,7.80
2023-02-17T16:58:04.950Z,7.70
2023-02-17T17:00:33.007Z,8.10
2023-02-17T17:03:00.271Z,7.70
2023-02-17T17:05:28.945Z,7.80
2023-02-17T17:07:57.002Z,7.80
2023-02-17T17:10:28.206Z,8.10
2023-02-17T17:12:55.532Z,8.10
2023-02-17T17:15:28.443Z,7.90
2023-02-17T17:18:04.807Z,7.90
2023-02-17T17:20:35.250Z,7.90
2023-02-17T17:23:05.447Z,7.80
2023-02-17T17:25:39.917Z,7.90
2023-02-17T17:28:07.491Z,8.00
2023-02-17T17:30:37.345Z,7.90
2023-02-17T17:33:04.791Z,7.90
2023-02-17T17:38:00.278Z,8.20
2023-02-17T17:40:48.287Z,8.00
2023-02-17T17:43:23.536Z,7.80
2023-02-17T17:45:51.607Z,7.80
2023-02-17T17:48:19.511Z,8.10
2023-02-17T17:50:51.458Z,8.20
2023-02-17T17:53:18.549Z,8.30
2023-02-17T17:55:47.282Z,8.10
2023-02-17T17:58:16.234Z,8.40
2023-02-17T18:00:43.624Z,8.20
2023-02-17T18:03:10.752Z,8.20
2023-02-17T18:05:41.519Z,7.80
2023-02-17T18:08:09.166Z,8.20
2023-02-17T18:10:41.926Z,8.00
2023-02-17T18:13:11.869Z,8.40
2023-02-17T18:15:41.239Z,8.20
2023-02-17T18:18:08.816Z,8.30
2023-02-17T18:20:36.209Z,8.10
2023-02-17T18:23:03.355Z,8.50
2023-02-17T18:25:31.051Z,7.90
2023-02-17T18:28:01.140Z,8.30
2023-02-17T18:30:28.479Z,8.60
2023-02-17T18:35:23.836Z,8.30
2023-02-17T18:40:20.394Z,9.40
2023-02-17T18:42:49.593Z,8.30
2023-02-17T18:45:17.624Z,8.30
2023-02-17T18:47:45.475Z,8.40
2023-02-17T18:50:14.061Z,8.60
2023-02-17T18:52:43.518Z,8.70
2023-02-17T18:55:11.274Z,8.70
2023-02-17T18:57:38.670Z,8.80
2023-02-17T19:00:10.765Z,8.40
2023-02-17T19:02:43.759Z,8.90
2023-02-17T19:05:11.965Z,9.30
2023-02-17T19:07:41.086Z,8.70
2023-02-17T19:10:11.267Z,8.80
2023-02-17T19:12:38.609Z,9.20
2023-02-17T19:15:07.086Z,8.90
2023-02-17T19:17:34.227Z,9.00
2023-02-17T19:20:01.787Z,9.00
2023-02-17T19:22:32.034Z,9.00
2023-02-17T19:24:59.551Z,8.90
2023-02-17T19:27:26.766Z,8.20
2023-02-17T19:29:54.156Z,9.10
2023-02-17T19:32:22.333Z,8.90
2023-02-17T19:34:49.805Z,9.50
2023-02-17T19:37:16.950Z,9.10
2023-02-17T19:39:45.520Z,8.90
2023-02-17T19:42:13.019Z,9.00
2023-02-17T19:44:40.550Z,9.10
2023-02-17T19:47:10.622Z,9.20
2023-02-17T19:49:38.294Z,9.30
2023-02-17T19:52:07.965Z,9.40
2023-02-17T19:54:35.352Z,9.20
2023-02-17T19:57:02.541Z,9.20
2023-02-17T19:59:33.373Z,9.30
2023-02-17T20:02:00.629Z,9.40
2023-02-17T20:04:28.067Z,9.10
2023-02-17T20:06:55.305Z,9.10
2023-02-17T20:09:23.527Z,9.00
2023-02-17T20:11:53.293Z,9.10
2023-02-17T20:14:21.350Z,9.10
2023-02-17T20:16:48.656Z,9.00
2023-02-17T20:19:16.332Z,9.00
2023-02-17T20:24:14.307Z,8.70
2023-02-17T20:26:44.545Z,8.60
2023-02-17T20:29:14.966Z,8.30
2023-02-17T20:31:42.713Z,9.00
2023-02-17T20:34:27.727Z,8.70
2023-02-17T20:39:23.800Z,8.20
2023-02-17T20:41:50.943Z,8.50
2023-02-17T20:44:18.780Z,8.20
2023-02-17T20:46:46.788Z,8.70
2023-02-17T20:49:15.656Z,8.10
2023-02-17T20:51:42.939Z,8.00
2023-02-17T20:54:10.303Z,8.30
2023-02-17T20:56:43.496Z,8.10
2023-02-17T20:59:14.684Z,8.00
2023-02-17T21:01:42.393Z,7.50
2023-02-17T21:04:10.048Z,7.40
2023-02-17T21:06:41.504Z,7.60
2023-02-17T21:09:17.194Z,7.20
2023-02-17T21:14:13.777Z,7.40
2023-02-17T21:16:41.521Z,7.80
2023-02-17T21:19:09.539Z,6.90
2023-02-17T21:21:36.665Z,7.50
2023-02-17T21:24:04.830Z,7.30
2023-02-17T21:26:33.355Z,7.50
2023-02-17T21:29:00.794Z,7.50
2023-02-17T21:31:31.392Z,7.30
2023-02-17T21:33:59.430Z,7.10
2023-02-17T21:36:28.961Z,7.60
2023-02-17T21:38:57.231Z,7.30
2023-02-17T21:41:30.365Z,7.10
2023-02-17T21:44:16.965Z,7.90
2023-02-17T21:46:46.491Z,7.30
2023-02-17T21:49:14.157Z,7.80
2023-02-17T21:51:41.792Z,7.60
2023-02-17T21:54:10.139Z,7.40
2023-02-17T21:56:37.800Z,7.60
2023-02-17T21:59:09.295Z,7.90
2023-02-17T22:01:37.162Z,7.50
2023-02-17T22:04:05.192Z,7.30
2023-02-17T22:06:35.454Z,7.10
2023-02-17T22:09:07.037Z,6.80
2023-02-17T22:11:36.494Z,6.70
2023-02-17T22:14:11.396Z,6.80
2023-02-17T22:16:41.839Z,7.00
2023-02-17T22:19:22.080Z,6.80
2023-02-17T22:21:51.454Z,6.80
2023-02-17T22:24:22.854Z,6.60
2023-02-17T22:26:50.177Z,6.40
2023-02-17T22:29:17.911Z,6.70
2023-02-17T22:31:45.230Z,6.70
2023-02-17T22:34:14.551Z,6.60
2023-02-17T22:36:41.993Z,6.60
2023-02-17T22:39:09.595Z,6.70
2023-02-17T22:41:36.759Z,6.90
2023-02-17T22:44:04.347Z,6.90
2023-02-17T22:46:31.942Z,6.90
2023-02-17T22:51:32.724Z,6.80
2023-02-17T22:56:28.774Z,7.00
2023-02-17T22:59:00.613Z,6.90
2023-02-17T23:01:29.391Z,6.80
2023-02-17T23:03:56.875Z,6.60
2023-02-17T23:06:33.116Z,7.00
2023-02-17T23:09:01.806Z,7.00
2023-02-17T23:11:50.074Z,7.00
2023-02-17T23:14:27.171Z,6.70
2023-02-17T23:16:57.831Z,7.10
2023-02-17T23:19:25.593Z,7.20
2023-02-17T23:21:55.880Z,6.50
2023-02-17T23:24:24.439Z,6.80
2023-02-17T23:26:52.969Z,7.00
2023-02-17T23:29:20.452Z,7.00
2023-02-17T23:31:47.594Z,6.90
2023-02-17T23:34:16.224Z,7.00
2023-02-17T23:36:45.043Z,7.00
2023-02-17T23:39:13.363Z,6.90
2023-02-17T23:44:11.359Z,7.10
2023-02-17T23:46:40.859Z,7.30
2023-02-17T23:49:08.990Z,7.50
2023-02-17T23:51:36.077Z,6.90
2023-02-17T23:54:03.438Z,7.00
2023-02-17T23:56:35.365Z,6.90
2023-02-17T23:59:03.647Z,6.90
